Time;durP1;ratioP1;P1;durP2;ratioP2;P2;SDS_P1;SDS_P2;PMS_P1;PMS_P2;Temp;Humidity;BMP_temperature;BMP_pressure;BME280_temperature;BME280_humidity;BME280_pressure;Samples;Min_cycle;Max_cycle;Signal;HPM_P1;HPM_P2
2021/01/10 00:00:38;;;;;;;3.20;2.90;;;;;;;21.10;37.78;101837.59;5060525;28;20183;-71
2021/01/10 00:03:04;;;;;;;2.90;2.70;;;;;;;21.12;37.91;101839.13;5035569;28;20188;-66
2021/01/10 00:05:32;;;;;;;2.90;2.70;;;;;;;21.12;37.86;101832.84;5019161;28;20220;-66
2021/01/10 00:07:58;;;;;;;3.00;2.80;;;;;;;21.13;38.00;101838.13;5053275;28;20188;-66
2021/01/10 00:10:24;;;;;;;3.20;2.90;;;;;;;21.15;38.03;101833.38;5035629;28;20204;-70
2021/01/10 00:12:50;;;;;;;2.70;2.50;;;;;;;21.18;38.00;101834.06;5035702;28;20180;-71
2021/01/10 00:15:17;;;;;;;3.47;3.23;;;;;;;21.21;38.22;101833.75;5052716;28;20223;-71
2021/01/10 00:17:46;;;;;;;3.13;2.83;;;;;;;21.22;38.15;101839.03;5035594;28;20238;-70
2021/01/10 00:20:12;;;;;;;3.13;2.93;;;;;;;21.26;38.08;101839.59;5021140;28;20184;-71
2021/01/10 00:22:38;;;;;;;3.07;2.87;;;;;;;21.27;37.97;101842.16;5054277;28;20638;-71
2021/01/10 00:25:05;;;;;;;3.17;2.90;;;;;;;21.29;38.11;101837.41;5071231;28;20338;-71
2021/01/10 00:27:31;;;;;;;3.13;2.93;;;;;;;21.30;38.04;101838.28;5054321;28;20195;-71
2021/01/10 00:29:58;;;;;;;2.93;2.73;;;;;;;21.31;37.79;101840.00;5054197;28;20259;-71
2021/01/10 00:32:24;;;;;;;3.53;3.23;;;;;;;21.30;37.71;101835.56;5071883;28;20630;-71
2021/01/10 00:34:50;;;;;;;2.80;2.60;;;;;;;21.30;37.91;101841.03;5054204;28;20268;-71
2021/01/10 00:37:18;;;;;;;2.97;2.77;;;;;;;21.28;37.88;101843.00;5071799;28;20186;-71
2021/01/10 00:39:44;;;;;;;2.80;2.60;;;;;;;21.25;37.79;101837.88;5021571;28;20574;-66
2021/01/10 00:42:13;;;;;;;3.00;2.80;;;;;;;21.23;37.70;101837.16;5021577;28;20278;-71
2021/01/10 00:44:40;;;;;;;3.30;3.00;;;;;;;21.20;37.54;101840.19;5037433;28;20290;-66
2021/01/10 00:47:06;;;;;;;3.30;3.00;;;;;;;21.15;37.47;101838.81;5037408;28;20183;-66
2021/01/10 00:49:32;;;;;;;3.23;2.97;;;;;;;21.12;37.48;101841.84;5037285;28;20208;-66
2021/01/10 00:51:58;;;;;;;3.10;2.90;;;;;;;21.10;37.52;101841.16;5037483;28;20184;-72
2021/01/10 00:54:25;;;;;;;3.20;2.90;;;;;;;21.10;37.76;101835.72;5037136;28;20561;-66
2021/01/10 00:56:51;;;;;;;3.00;2.77;;;;;;;21.10;37.61;101846.59;4998035;28;20185;-66
2021/01/10 00:59:17;;;;;;;3.20;3.00;;;;;;;21.10;37.51;101846.59;5014248;28;20268;-71
2021/01/10 01:01:43;;;;;;;3.17;2.93;;;;;;;21.09;37.71;101847.63;5014249;28;20181;-71
2021/01/10 01:04:10;;;;;;;2.90;2.70;;;;;;;21.08;37.69;101845.91;5016403;28;20667;-70
2021/01/10 01:06:36;;;;;;;3.00;2.80;;;;;;;21.07;37.56;101844.19;5051475;28;20268;-71
2021/01/10 01:09:03;;;;;;;3.43;3.20;;;;;;;21.06;37.80;101839.78;5033897;28;20208;-67
2021/01/10 01:11:31;;;;;;;3.67;3.37;;;;;;;21.06;37.90;101852.53;5033893;28;20181;-67
2021/01/10 01:13:57;;;;;;;3.70;3.40;;;;;;;21.04;37.93;101849.94;5017121;28;20232;-66
2021/01/10 01:16:23;;;;;;;3.40;3.10;;;;;;;21.03;38.03;101850.94;5034016;28;20521;-67
2021/01/10 01:18:49;;;;;;;3.10;2.90;;;;;;;21.03;37.83;101850.09;5001180;28;20168;-70
2021/01/10 01:21:19;;;;;;;3.10;2.90;;;;;;;21.04;37.84;101846.34;5033801;28;20184;-66
2021/01/10 01:23:45;;;;;;;3.20;3.00;;;;;;;21.02;37.99;101842.94;5051119;28;20576;-66
2021/01/10 01:26:19;;;;;;;3.07;2.80;;;;;;;21.05;38.04;101848.91;5044235;28;20202;-66
2021/01/10 01:28:46;;;;;;;3.10;2.90;;;;;;;21.04;38.20;101844.50;5070910;28;20191;-66
2021/01/10 01:31:12;;;;;;;2.80;2.60;;;;;;;21.06;38.05;101844.34;5053669;28;20215;-66
2021/01/10 01:33:39;;;;;;;2.83;2.63;;;;;;;21.08;38.23;101859.53;5071073;28;20345;-66
2021/01/10 01:36:09;;;;;;;3.00;2.80;;;;;;;21.11;38.08;101852.91;5065068;28;20262;-66
2021/01/10 01:38:35;;;;;;;3.00;2.80;;;;;;;21.12;38.30;101855.47;5035188;28;20189;-70
2021/01/10 01:41:01;;;;;;;2.93;2.73;;;;;;;21.15;38.27;101860.59;5035169;28;20185;-71
2021/01/10 01:43:27;;;;;;;2.80;2.60;;;;;;;21.19;38.07;101860.28;5017921;28;20177;-71
2021/01/10 01:45:53;;;;;;;3.03;2.83;;;;;;;21.19;38.30;101857.56;5035133;28;20188;-71
2021/01/10 01:48:19;;;;;;;3.40;3.10;;;;;;;21.21;38.19;101859.09;5017810;28;20189;-70
2021/01/10 01:50:45;;;;;;;3.17;2.97;;;;;;;21.22;38.10;101865.41;5001354;28;20231;-71
2021/01/10 01:53:11;;;;;;;3.20;3.00;;;;;;;21.22;37.96;101865.41;5034965;28;20187;-67
2021/01/10 01:55:38;;;;;;;3.30;3.00;;;;;;;21.21;38.10;101864.56;5017564;28;20212;-66
2021/01/10 01:58:07;;;;;;;3.53;3.27;;;;;;;21.22;37.76;101866.25;4984980;28;20185;-66
2021/01/10 02:00:33;;;;;;;2.90;2.70;;;;;;;21.19;37.61;101863.84;5001216;28;20256;-66
2021/01/10 02:02:59;;;;;;;3.23;3.03;;;;;;;21.15;37.79;101866.03;5017300;28;20200;-66
2021/01/10 02:05:26;;;;;;;3.43;3.17;;;;;;;21.10;37.66;101868.38;5018023;28;20716;-71
2021/01/10 02:08:05;;;;;;;3.23;3.03;;;;;;;21.07;37.88;101871.44;5029587;28;20191;-70
2021/01/10 02:10:35;;;;;;;3.20;2.90;;;;;;;21.04;37.66;101869.00;5040471;28;20611;-66
2021/01/10 02:13:02;;;;;;;3.43;3.13;;;;;;;21.04;37.71;101863.53;5040115;28;20199;-66
2021/01/10 02:15:35;;;;;;;3.37;3.07;;;;;;;21.06;37.64;101867.00;5047799;28;20207;-66
2021/01/10 02:18:02;;;;;;;3.17;2.97;;;;;;;21.04;37.84;101858.09;5054456;28;20190;-66
2021/01/10 02:20:32;;;;;;;3.23;3.03;;;;;;;21.07;37.96;101862.41;5048201;28;20778;-67
2021/01/10 02:23:06;;;;;;;3.40;3.10;;;;;;;21.08;38.06;101859.53;5031372;28;20285;-67
2021/01/10 02:25:33;;;;;;;3.00;2.80;;;;;;;21.09;37.90;101861.22;5036949;28;20222;-72
2021/01/10 02:27:59;;;;;;;3.23;3.03;;;;;;;21.10;38.18;101856.66;5041034;28;20184;-67
2021/01/10 02:30:25;;;;;;;3.17;2.97;;;;;;;21.12;38.35;101851.88;5028184;28;20200;-67
2021/01/10 02:32:53;;;;;;;2.80;2.60;;;;;;;21.15;38.27;101844.25;5036695;28;20659;-65
2021/01/10 02:35:19;;;;;;;3.23;3.03;;;;;;;21.19;38.27;101843.94;5036814;28;20226;-66
2021/01/10 02:38:01;;;;;;;3.10;2.90;;;;;;;21.24;38.13;101841.63;5051993;28;20501;-65
2021/01/10 02:40:32;;;;;;;3.33;3.10;;;;;;;21.26;38.30;101834.16;5057261;28;20195;-71
2021/01/10 02:43:01;;;;;;;3.27;3.03;;;;;;;21.28;38.20;101843.00;5056618;28;20179;-66
2021/01/10 02:45:28;;;;;;;3.17;2.97;;;;;;;21.30;38.24;101841.03;5073657;28;20199;-69
2021/01/10 02:47:54;;;;;;;2.80;2.60;;;;;;;21.31;38.13;101849.03;5038830;28;20599;-71
2021/01/10 02:50:20;;;;;;;3.13;2.93;;;;;;;21.33;38.10;101843.41;5038178;28;20243;-66
2021/01/10 02:52:49;;;;;;;3.23;3.03;;;;;;;21.36;38.08;101849.41;5028972;28;20194;-66
2021/01/10 02:55:15;;;;;;;3.40;3.10;;;;;;;21.33;37.96;101841.56;5022990;28;20212;-66
2021/01/10 02:57:51;;;;;;;3.00;2.80;;;;;;;21.35;37.76;101849.56;5039717;28;20194;-66
2021/01/10 03:00:18;;;;;;;3.37;3.07;;;;;;;21.32;37.81;101847.16;5040306;28;20274;-71
2021/01/10 03:02:45;;;;;;;3.10;2.90;;;;;;;21.29;37.74;101840.13;5056064;28;20213;-71
2021/01/10 03:05:12;;;;;;;3.50;3.20;;;;;;;21.27;37.82;101842.16;5023228;28;20207;-70
2021/01/10 03:07:38;;;;;;;3.20;3.00;;;;;;;21.25;37.47;101844.19;5022975;28;20189;-66
2021/01/10 03:10:04;;;;;;;3.40;3.10;;;;;;;21.23;37.75;101846.19;5039183;28;20207;-71
2021/01/10 03:12:30;;;;;;;3.30;3.00;;;;;;;21.19;37.52;101833.91;5055891;28;20535;-65
2021/01/10 03:14:58;;;;;;;2.93;2.73;;;;;;;21.16;37.38;101834.22;5055735;28;20206;-65
2021/01/10 03:17:37;;;;;;;3.40;3.10;;;;;;;21.17;37.56;101832.34;5055609;28;20404;-66
2021/01/10 03:20:08;;;;;;;3.43;3.13;;;;;;;21.18;37.62;101825.91;5022331;28;20190;-70
2021/01/10 03:22:34;;;;;;;3.10;2.90;;;;;;;21.17;37.70;101825.03;5056114;28;20253;-70
2021/01/10 03:25:01;;;;;;;3.23;3.00;;;;;;;21.17;37.67;101825.03;5038819;28;20622;-66
2021/01/10 03:27:27;;;;;;;3.50;3.20;;;;;;;21.12;37.53;101822.81;5039186;28;20233;-66
2021/01/10 03:29:53;;;;;;;3.40;3.20;;;;;;;21.12;37.86;101814.63;5022388;28;20690;-65
2021/01/10 03:32:19;;;;;;;3.20;3.00;;;;;;;21.13;37.93;101827.22;5039082;28;20627;-65
2021/01/10 03:34:45;;;;;;;3.23;3.03;;;;;;;21.14;38.03;101818.03;5038639;28;20212;-70
2021/01/10 03:37:12;;;;;;;3.10;2.90;;;;;;;21.15;37.96;101811.59;5039035;28;20194;-66
2021/01/10 03:39:38;;;;;;;3.20;3.00;;;;;;;21.18;37.98;101817.72;5037931;28;20183;-69
2021/01/10 03:42:04;;;;;;;3.20;3.00;;;;;;;21.19;38.05;101806.69;5055480;28;20180;-70
2021/01/10 03:44:30;;;;;;;3.20;2.90;;;;;;;21.21;37.83;101809.25;5038643;28;20280;-70
2021/01/10 03:46:56;;;;;;;3.20;3.00;;;;;;;21.23;37.77;101809.94;5055164;28;20839;-65
2021/01/10 03:49:22;;;;;;;3.23;3.03;;;;;;;21.23;37.79;101802.63;5052796;28;20207;-71
2021/01/10 03:51:48;;;;;;;3.43;3.13;;;;;;;21.28;37.87;101804.88;5035688;28;20706;-71
2021/01/10 03:54:15;;;;;;;3.30;3.10;;;;;;;21.28;37.95;101804.88;5034844;28;20196;-71
2021/01/10 03:56:41;;;;;;;3.80;3.50;;;;;;;21.29;37.88;101806.59;5034877;28;20696;-71
2021/01/10 03:59:07;;;;;;;3.20;3.00;;;;;;;21.29;37.64;101806.59;5048931;28;20554;-71
2021/01/10 04:01:33;;;;;;;3.50;3.20;;;;;;;21.29;37.71;101810.19;5055048;28;20180;-67
2021/01/10 04:03:59;;;;;;;3.20;3.00;;;;;;;21.30;37.50;101808.34;5054778;28;20240;-65
2021/01/10 04:06:25;;;;;;;3.63;3.33;;;;;;;21.28;37.58;101805.75;5054901;28;20253;-70
2021/01/10 04:08:53;;;;;;;3.50;3.20;;;;;;;21.27;37.69;101806.75;5038176;28;20226;-70
2021/01/10 04:11:20;;;;;;;3.50;3.30;;;;;;;21.24;37.38;101809.81;5022611;28;20396;-70
2021/01/10 04:13:46;;;;;;;3.93;3.60;;;;;;;21.23;37.26;101807.22;5067926;28;20215;-70
2021/01/10 04:16:12;;;;;;;3.53;3.23;;;;;;;21.23;37.43;101812.66;5067943;28;20192;-66
2021/01/10 04:18:38;;;;;;;3.80;3.50;;;;;;;21.20;37.50;101807.53;5051276;28;20226;-66
2021/01/10 04:21:05;;;;;;;3.80;3.50;;;;;;;21.17;37.22;101803.25;5034821;28;20290;-66
2021/01/10 04:23:31;;;;;;;3.80;3.50;;;;;;;21.15;37.38;101803.41;5050783;28;20188;-66
2021/01/10 04:25:57;;;;;;;3.77;3.47;;;;;;;21.13;37.30;101797.28;5050896;28;20176;-70
2021/01/10 04:28:23;;;;;;;3.70;3.40;;;;;;;21.11;37.42;101799.31;5034430;28;20223;-72
2021/01/10 04:30:49;;;;;;;3.20;3.00;;;;;;;21.10;37.34;101803.03;5051879;28;20667;-72
2021/01/10 04:33:15;;;;;;;3.20;3.00;;;;;;;21.09;37.66;101806.78;5052209;28;20180;-67
2021/01/10 04:35:41;;;;;;;3.60;3.30;;;;;;;21.10;37.51;101804.91;5067517;28;20275;-71
2021/01/10 04:38:07;;;;;;;3.90;3.60;;;;;;;21.10;37.50;101804.91;5050761;28;20185;-71
2021/01/10 04:40:33;;;;;;;3.70;3.40;;;;;;;21.12;37.81;101811.06;5067311;28;20670;-71
2021/01/10 04:42:59;;;;;;;3.53;3.23;;;;;;;21.13;37.64;101802.72;5067492;28;20400;-67
2021/01/10 04:45:26;;;;;;;3.33;3.07;;;;;;;21.15;38.02;101808.88;5050766;28;20208;-67
2021/01/10 04:47:52;;;;;;;3.70;3.40;;;;;;;21.17;37.88;101803.25;5050722;28;20188;-67
2021/01/10 04:50:18;;;;;;;3.27;3.07;;;;;;;21.20;37.75;101799.38;5050608;28;20200;-67
2021/01/10 04:52:45;;;;;;;3.73;3.43;;;;;;;21.22;37.97;101800.06;5051569;28;20612;-67
2021/01/10 04:55:12;;;;;;;3.60;3.30;;;;;;;21.25;37.69;101799.75;5051262;28;20196;-66
2021/01/10 04:57:38;;;;;;;3.40;3.13;;;;;;;21.26;37.98;101812.38;5051506;28;20286;-72
2021/01/10 05:00:08;;;;;;;3.80;3.50;;;;;;;21.29;37.91;101807.44;5034811;28;20502;-72
2021/01/10 05:02:38;;;;;;;3.40;3.20;;;;;;;21.30;37.71;101813.78;5051485;28;20188;-66
2021/01/10 05:05:04;;;;;;;3.30;3.10;;;;;;;21.32;37.54;101803.59;5067621;28;20313;-66
2021/01/10 05:07:33;;;;;;;3.37;3.17;;;;;;;21.33;37.63;101802.56;5067993;28;20267;-66
2021/01/10 05:09:59;;;;;;;3.77;3.47;;;;;;;21.32;37.73;101806.31;5033581;28;20423;-66
2021/01/10 05:12:26;;;;;;;3.53;3.23;;;;;;;21.32;37.51;101806.31;5068311;28;20195;-67
2021/01/10 05:14:52;;;;;;;3.57;3.27;;;;;;;21.31;37.34;101810.03;5034681;28;20204;-66
2021/01/10 05:17:21;;;;;;;3.60;3.30;;;;;;;21.27;37.27;101814.06;5068258;28;20188;-70
2021/01/10 05:19:51;;;;;;;3.70;3.40;;;;;;;21.27;37.34;101805.91;5051294;28;20176;-66
2021/01/10 05:22:17;;;;;;;3.70;3.40;;;;;;;21.23;37.52;101807.22;5051095;28;20188;-66
2021/01/10 05:24:44;;;;;;;3.70;3.40;;;;;;;21.19;37.42;101811.25;5034493;28;20204;-66
2021/01/10 05:27:10;;;;;;;3.57;3.27;;;;;;;21.15;37.45;101805.28;5051282;28;20620;-67
2021/01/10 05:29:36;;;;;;;3.93;3.63;;;;;;;21.13;37.38;101810.91;5034462;28;20220;-66
2021/01/10 05:32:02;;;;;;;3.80;3.50;;;;;;;21.12;37.19;101814.63;5050970;28;20187;-71
2021/01/10 05:34:28;;;;;;;3.47;3.17;;;;;;;21.11;37.33;101809.34;5034371;28;20283;-71
2021/01/10 05:36:56;;;;;;;3.30;3.10;;;;;;;21.08;37.61;101815.97;5051167;28;20263;-66
2021/01/10 05:39:31;;;;;;;3.57;3.27;;;;;;;21.08;37.70;101818.69;5050690;28;20188;-66
2021/01/10 05:41:59;;;;;;;3.87;3.57;;;;;;;21.08;37.77;101813.25;5052087;28;20261;-66
2021/01/10 05:44:25;;;;;;;3.50;3.20;;;;;;;21.09;37.78;101820.41;5034247;28;20206;-67
2021/01/10 05:47:04;;;;;;;3.30;3.10;;;;;;;21.12;37.59;101820.06;5067819;28;20201;-70
2021/01/10 05:49:30;;;;;;;3.30;3.10;;;;;;;21.13;37.84;101810.03;5050558;28;20290;-66
2021/01/10 05:51:56;;;;;;;3.70;3.40;;;;;;;21.17;37.73;101818.75;5045916;28;20349;-66
2021/01/10 05:54:35;;;;;;;4.00;3.70;;;;;;;21.20;37.74;101813.84;5001817;28;20207;-66
2021/01/10 05:57:08;;;;;;;3.50;3.30;;;;;;;21.23;37.71;101808.06;5020233;28;20237;-70
2021/01/10 05:59:36;;;;;;;3.20;3.00;;;;;;;21.25;37.87;101810.66;5042449;28;20604;-66
2021/01/10 06:02:03;;;;;;;3.53;3.30;;;;;;;21.26;37.69;101807.78;5038101;28;20566;-66
2021/01/10 06:04:29;;;;;;;3.30;3.10;;;;;;;21.29;37.76;101812.03;5021251;28;20220;-70
2021/01/10 06:06:57;;;;;;;3.57;3.27;;;;;;;21.32;37.89;101811.75;5054456;28;20198;-67
2021/01/10 06:09:23;;;;;;;3.53;3.23;;;;;;;21.33;37.74;101811.59;5021304;28;20246;-70
2021/01/10 06:11:49;;;;;;;3.60;3.30;;;;;;;21.36;37.49;101807.69;5045576;28;20218;-66
2021/01/10 06:14:24;;;;;;;3.57;3.30;;;;;;;21.37;37.59;101806.69;5071800;28;20199;-67
2021/01/10 06:16:54;;;;;;;3.70;3.40;;;;;;;21.37;37.48;101803.94;5021329;28;20201;-71
2021/01/10 06:19:27;;;;;;;3.67;3.37;;;;;;;21.36;37.53;101810.41;5037847;28;20259;-71
2021/01/10 06:21:59;;;;;;;3.40;3.10;;;;;;;21.33;37.62;101805.28;5040509;28;20623;-71
2021/01/10 06:24:26;;;;;;;3.53;3.23;;;;;;;21.30;37.47;101802.88;5058552;28;20247;-71
2021/01/10 06:27:03;;;;;;;3.80;3.50;;;;;;;21.28;37.38;101810.34;5058033;28;20194;-67
2021/01/10 06:29:36;;;;;;;3.57;3.27;;;;;;;21.25;37.48;101805.22;5024782;28;20605;-66
2021/01/10 06:32:02;;;;;;;3.87;3.57;;;;;;;21.21;37.08;101807.38;5041900;28;20230;-67
2021/01/10 06:34:28;;;;;;;3.77;3.47;;;;;;;21.19;37.36;101811.25;5024632;28;20238;-72
2021/01/10 06:36:54;;;;;;;3.63;3.33;;;;;;;21.16;37.11;101812.44;5023997;28;20198;-71
2021/01/10 06:39:21;;;;;;;3.70;3.40;;;;;;;21.15;37.14;101817.03;5032281;28;20195;-71
2021/01/10 06:41:56;;;;;;;3.57;3.27;;;;;;;21.18;37.44;101818.59;5024539;28;20190;-71
2021/01/10 06:44:22;;;;;;;3.50;3.20;;;;;;;21.12;37.17;101817.34;5074643;28;20203;-71
2021/01/10 06:46:49;;;;;;;3.73;3.43;;;;;;;21.11;37.41;101815.66;5052399;28;20203;-71
2021/01/10 06:49:15;;;;;;;3.73;3.43;;;;;;;21.10;37.24;101819.38;5051447;28;20229;-71
2021/01/10 06:51:41;;;;;;;3.50;3.30;;;;;;;21.07;37.46;101825.16;5056797;28;20180;-72
2021/01/10 06:54:07;;;;;;;3.30;3.10;;;;;;;21.08;37.86;101820.56;5038376;28;20216;-72
2021/01/10 06:56:33;;;;;;;3.43;3.13;;;;;;;21.07;37.64;101819.69;5072596;28;20198;-72
2021/01/10 06:59:12;;;;;;;3.60;3.30;;;;;;;21.11;37.63;101821.09;5033243;28;20282;-71
2021/01/10 07:01:47;;;;;;;3.53;3.23;;;;;;;21.12;37.64;101822.81;5044894;28;20183;-66
2021/01/10 07:04:13;;;;;;;4.10;3.80;;;;;;;21.13;37.64;101818.22;5074476;28;20218;-66
2021/01/10 07:06:46;;;;;;;3.60;3.30;;;;;;;21.17;37.59;101821.47;5024137;28;20195;-66
2021/01/10 07:09:12;;;;;;;3.60;3.30;;;;;;;21.19;37.92;101822.16;5040569;28;20218;-66
2021/01/10 07:11:39;;;;;;;3.50;3.20;;;;;;;21.20;37.81;101823.88;5023934;28;20547;-72
2021/01/10 07:14:05;;;;;;;3.63;3.33;;;;;;;21.23;37.66;101820.81;5040193;28;20207;-71
2021/01/10 07:16:31;;;;;;;3.83;3.53;;;;;;;21.25;37.65;101821.56;5074306;28;20658;-71
2021/01/10 07:18:58;;;;;;;3.60;3.30;;;;;;;21.28;37.86;101818.50;5040217;28;20202;-71
2021/01/10 07:21:31;;;;;;;3.60;3.30;;;;;;;21.30;37.56;101830.97;5023416;28;20187;-67
2021/01/10 07:24:24;;;;;;;3.40;3.20;;;;;;;21.31;37.72;101824.50;5039878;28;20234;-67
2021/01/10 07:26:54;;;;;;;3.60;3.30;;;;;;;21.31;37.44;101834.56;5074089;28;20639;-67
2021/01/10 07:29:33;;;;;;;3.50;3.20;;;;;;;21.30;37.66;101841.03;5056468;28;20628;-67
2021/01/10 07:32:00;;;;;;;3.90;3.60;;;;;;;21.27;37.34;101841.31;5055394;28;20191;-67
2021/01/10 07:34:26;;;;;;;3.77;3.47;;;;;;;21.25;37.33;101837.88;5047977;28;20273;-67
2021/01/10 07:36:57;;;;;;;3.80;3.50;;;;;;;21.23;37.54;101848.91;5023049;28;20188;-70
2021/01/10 07:39:27;;;;;;;3.53;3.23;;;;;;;21.20;37.54;101832.03;5040055;28;20183;-71
2021/01/10 07:41:53;;;;;;;3.60;3.30;;;;;;;21.15;37.29;101832.50;5047679;28;20544;-72
2021/01/10 07:44:21;;;;;;;3.90;3.60;;;;;;;21.15;37.41;101844.25;5039715;28;20666;-72
2021/01/10 07:46:57;;;;;;;3.47;3.17;;;;;;;21.16;37.29;101850.56;5016877;28;20195;-67
2021/01/10 07:49:31;;;;;;;3.40;3.20;;;;;;;21.18;37.30;101844.97;5050057;28;20239;-72
2021/01/10 07:51:57;;;;;;;4.00;3.70;;;;;;;21.15;37.32;101846.97;5023189;28;20192;-67
2021/01/10 07:54:52;;;;;;;3.70;3.40;;;;;;;21.17;37.24;101852.28;5039332;28;20206;-66
2021/01/10 07:57:25;;;;;;;3.27;3.07;;;;;;;21.15;37.54;101848.84;5073379;28;20686;-66
2021/01/10 08:00:24;;;;;;;3.70;3.40;;;;;;;21.15;37.34;101855.16;5023027;28;20218;-71
2021/01/10 08:03:03;;;;;;;3.30;3.10;;;;;;;21.15;37.68;101846.97;5073473;28;20179;-71
2021/01/10 08:05:33;;;;;;;3.30;3.03;;;;;;;21.15;37.70;101844.25;5057297;28;20218;-70
2021/01/10 08:08:37;;;;;;;3.60;3.30;;;;;;;21.18;37.70;101844.97;5073384;28;20638;-70
2021/01/10 08:11:03;;;;;;;3.50;3.20;;;;;;;21.19;37.58;101838.50;5073219;28;20206;-71
2021/01/10 08:13:30;;;;;;;3.27;3.07;;;;;;;21.22;37.80;101843.63;5073206;28;20611;-71
2021/01/10 08:15:57;;;;;;;3.80;3.50;;;;;;;21.24;37.93;101844.34;5055852;28;20257;-70
2021/01/10 08:18:24;;;;;;;3.63;3.33;;;;;;;21.25;37.78;101846.06;5033547;28;20690;-71
2021/01/10 08:20:56;;;;;;;3.10;2.90;;;;;;;21.28;37.72;101845.72;5053162;28;20172;-70
2021/01/10 08:23:23;;;;;;;3.27;3.00;;;;;;;21.27;37.43;101844.88;5053153;28;20180;-70
2021/01/10 08:25:49;;;;;;;3.60;3.30;;;;;;;21.31;37.18;101853.63;5035900;28;20173;-71
2021/01/10 08:28:19;;;;;;;3.13;2.93;;;;;;;21.32;37.54;101847.16;5035459;28;20175;-66
2021/01/10 08:30:45;;;;;;;3.33;3.10;;;;;;;21.32;37.51;101847.16;5018679;28;20212;-71
2021/01/10 08:33:21;;;;;;;3.50;3.20;;;;;;;21.34;37.29;101856.03;5035383;28;20631;-66
2021/01/10 08:35:47;;;;;;;3.43;3.23;;;;;;;21.29;37.33;101852.88;5035115;28;20255;-72
2021/01/10 08:38:14;;;;;;;3.53;3.23;;;;;;;21.29;37.17;101861.06;5035349;28;20172;-72
2021/01/10 08:40:40;;;;;;;3.73;3.50;;;;;;;21.29;37.12;101863.78;5015094;28;20184;-71
2021/01/10 08:43:06;;;;;;;3.93;3.63;;;;;;;21.29;37.35;101871.97;4999312;28;20256;-72
2021/01/10 08:45:32;;;;;;;3.27;3.07;;;;;;;21.28;37.06;101862.06;5014601;28;20197;-71
2021/01/10 08:48:05;;;;;;;3.30;3.00;;;;;;;21.28;37.37;101862.06;5023204;28;20624;-71
2021/01/10 08:50:40;;;;;;;3.43;3.13;;;;;;;21.28;37.39;101864.81;5032795;28;20300;-71
2021/01/10 08:53:06;;;;;;;3.73;3.43;;;;;;;21.27;37.59;101868.53;4999607;28;20183;-71
2021/01/10 08:55:40;;;;;;;3.50;3.20;;;;;;;21.28;37.65;101870.25;5015359;28;20204;-66
2021/01/10 08:58:07;;;;;;;3.47;3.17;;;;;;;21.27;37.56;101873.97;5015405;28;20243;-66
2021/01/10 09:00:34;;;;;;;3.23;3.03;;;;;;;21.29;37.64;101871.97;4998916;28;20621;-70
2021/01/10 09:03:12;;;;;;;3.50;3.27;;;;;;;21.32;37.56;101871.66;4999014;28;20181;-66
2021/01/10 09:05:39;;;;;;;3.00;2.80;;;;;;;21.32;37.73;101871.66;5032663;28;20624;-67
2021/01/10 09:08:05;;;;;;;3.20;3.00;;;;;;;21.34;37.99;101875.09;4999026;28;20262;-66
2021/01/10 09:10:32;;;;;;;3.40;3.20;;;;;;;21.36;37.79;101868.47;4998857;28;20209;-66
2021/01/10 09:13:04;;;;;;;3.07;2.87;;;;;;;21.39;38.09;101870.88;5015054;28;20247;-72
2021/01/10 09:15:34;;;;;;;3.27;3.00;;;;;;;21.43;38.11;101874.13;4999637;28;20229;-70
2021/01/10 09:18:08;;;;;;;3.20;3.00;;;;;;;21.48;38.03;101871.78;5007945;28;20199;-71
2021/01/10 09:20:59;;;;;;;3.40;3.10;;;;;;;21.52;38.04;101873.16;5038555;28;20522;-67
2021/01/10 09:23:25;;;;;;;3.10;2.90;;;;;;;21.54;38.06;101876.59;5026685;28;20196;-66
2021/01/10 09:25:51;;;;;;;2.90;2.70;;;;;;;21.55;38.14;101878.31;5053374;28;20192;-72
2021/01/10 09:28:18;;;;;;;3.00;2.80;;;;;;;21.58;37.90;101875.28;5052423;28;20188;-66
2021/01/10 09:30:45;;;;;;;2.90;2.70;;;;;;;21.61;37.75;101879.53;5072269;28;20215;-66
2021/01/10 09:33:12;;;;;;;3.13;2.93;;;;;;;21.63;37.73;101875.63;5052373;28;20191;-66
2021/01/10 09:35:45;;;;;;;3.50;3.20;;;;;;;21.64;37.84;101880.06;5071659;28;20195;-67
2021/01/10 09:38:16;;;;;;;3.13;2.83;;;;;;;21.67;37.86;101871.56;5054724;28;20635;-66
2021/01/10 09:41:10;;;;;;;3.10;2.90;;;;;;;21.70;37.58;101882.16;5040880;28;20194;-66
2021/01/10 09:43:46;;;;;;;3.33;3.03;;;;;;;21.72;37.48;101891.00;5061995;28;20266;-65
2021/01/10 09:46:38;;;;;;;3.00;2.80;;;;;;;21.74;37.92;101893.59;5030132;28;20210;-65
2021/01/10 09:49:05;;;;;;;3.20;3.00;;;;;;;21.73;38.01;101881.81;5005034;28;20692;-64
2021/01/10 09:51:36;;;;;;;3.27;3.07;;;;;;;21.75;38.07;101898.00;5043414;28;20279;-65
2021/01/10 09:54:19;;;;;;;3.33;3.10;;;;;;;21.79;38.12;101884.94;5001918;28;20230;-66
2021/01/10 09:56:58;;;;;;;3.00;2.80;;;;;;;21.81;37.90;101888.38;5056501;28;20192;-73
2021/01/10 09:59:34;;;;;;;3.23;2.93;;;;;;;21.83;37.99;101897.22;5028779;28;20176;-74
2021/01/10 10:02:00;;;;;;;4.00;3.10;;;;;;;21.83;37.83;101894.50;5018688;28;20203;-70
2021/01/10 10:04:27;;;;;;;3.43;3.13;;;;;;;21.87;38.17;101887.72;5021988;28;20224;-68
2021/01/10 10:06:53;;;;;;;4.93;3.60;;;;;;;21.89;38.08;101894.72;5041171;28;20195;-69
2021/01/10 10:09:19;;;;;;;3.83;3.20;;;;;;;21.92;38.22;101890.81;5036013;28;20298;-69
2021/01/10 10:11:45;;;;;;;3.70;2.90;;;;;;;21.95;38.00;101891.34;5075709;28;20526;-69
2021/01/10 10:14:13;;;;;;;5.20;3.30;;;;;;;21.98;37.90;101887.41;5031704;28;20219;-65
2021/01/10 10:16:40;;;;;;;5.27;3.30;;;;;;;22.01;38.18;101885.25;5035219;28;20180;-66
2021/01/10 10:19:06;;;;;;;7.17;3.60;;;;;;;22.05;38.06;101885.81;5056037;28;20531;-70
2021/01/10 10:21:32;;;;;;;5.57;3.40;;;;;;;22.08;37.99;101887.34;5024782;28;20531;-70
2021/01/10 10:23:58;;;;;;;5.40;3.60;;;;;;;22.10;37.96;101878.00;5011276;28;20204;-71
2021/01/10 10:26:24;;;;;;;9.63;3.90;;;;;;;22.14;38.16;101882.09;5033515;28;20240;-70
2021/01/10 10:28:50;;;;;;;7.77;3.50;;;;;;;22.18;37.88;101885.34;5040877;28;20245;-70
2021/01/10 10:31:16;;;;;;;5.43;3.40;;;;;;;22.20;38.03;101881.44;5047635;28;20184;-76
2021/01/10 10:33:42;;;;;;;8.30;3.23;;;;;;;22.24;38.03;101885.56;5033049;28;20315;-74
2021/01/10 10:36:08;;;;;;;7.47;3.33;;;;;;;22.27;37.81;101885.25;5028180;28;20672;-73
2021/01/10 10:38:34;;;;;;;6.27;3.30;;;;;;;22.31;37.93;101883.03;5040602;28;20183;-70
2021/01/10 10:41:01;;;;;;;5.67;3.40;;;;;;;22.33;38.01;101878.25;5047841;28;20202;-70
2021/01/10 10:43:27;;;;;;;7.33;3.70;;;;;;;22.35;38.07;101866.16;5074790;28;20640;-70
2021/01/10 10:45:53;;;;;;;4.60;3.67;;;;;;;22.39;37.89;101874.00;5040450;28;20191;-70
2021/01/10 10:48:19;;;;;;;4.73;3.30;;;;;;;22.41;38.07;101871.97;5057301;28;20191;-70
2021/01/10 10:50:45;;;;;;;7.33;3.30;;;;;;;22.42;37.86;101871.81;5049329;28;20295;-70
2021/01/10 10:53:11;;;;;;;8.30;3.73;;;;;;;22.43;37.50;101872.66;5024889;28;20217;-66
2021/01/10 10:55:37;;;;;;;7.20;3.40;;;;;;;22.46;37.51;101872.31;5048610;28;20203;-66
2021/01/10 10:58:03;;;;;;;5.07;3.40;;;;;;;22.44;37.46;101868.91;5040281;28;20207;-66
2021/01/10 11:00:31;;;;;;;8.70;3.60;;;;;;;22.47;37.56;101874.03;5040233;28;20612;-66
2021/01/10 11:02:57;;;;;;;6.97;3.50;;;;;;;22.46;37.63;101865.00;5057436;28;20175;-66
2021/01/10 11:05:25;;;;;;;6.03;3.67;;;;;;;22.45;37.44;101865.16;5040045;28;20242;-66
2021/01/10 11:07:51;;;;;;;6.17;3.60;;;;;;;22.45;37.51;101859.69;5052681;28;20180;-67
2021/01/10 11:10:17;;;;;;;6.23;3.40;;;;;;;22.43;37.18;101859.03;5039933;28;20633;-67
2021/01/10 11:12:43;;;;;;;5.63;3.33;;;;;;;22.39;37.09;101863.97;5054444;28;20638;-66
2021/01/10 11:15:09;;;;;;;4.43;3.80;;;;;;;22.35;37.10;101859.84;5070928;28;20219;-66
2021/01/10 11:17:36;;;;;;;7.80;3.73;;;;;;;22.29;37.16;101861.38;5046898;28;20205;-66
2021/01/10 11:20:04;;;;;;;4.67;3.60;;;;;;;22.22;37.01;101852.13;5040337;28;20176;-66
2021/01/10 11:22:34;;;;;;;5.67;3.50;;;;;;;22.15;36.93;101848.34;5071675;28;20278;-66
2021/01/10 11:25:02;;;;;;;4.70;3.50;;;;;;;22.11;37.13;101849.69;5040639;28;20207;-66
2021/01/10 11:27:28;;;;;;;6.23;3.80;;;;;;;22.06;36.99;101849.34;5039486;28;20275;-67
2021/01/10 11:29:54;;;;;;;5.13;3.60;;;;;;;22.01;37.00;101836.19;5073155;28;20207;-66